sensor_id;sensor_type;location;lat;lon;timestamp;temperature;humidity
6054;DHT22;3055;50.886;14.814;2023-04-24T00:00:20;9.60;99.90
6054;DHT22;3055;50.886;14.814;2023-04-24T00:02:47;9.50;99.90
6054;DHT22;3055;50.886;14.814;2023-04-24T00:05:15;9.40;99.90
6054;DHT22;3055;50.886;14.814;2023-04-24T00:07:43;9.30;99.90
6054;DHT22;3055;50.886;14.814;2023-04-24T00:10:11;9.20;99.90
6054;DHT22;3055;50.886;14.814;2023-04-24T00:12:39;9.20;99.90
6054;DHT22;3055;50.886;14.814;2023-04-24T00:15:08;9.30;99.90
6054;DHT22;3055;50.886;14.814;2023-04-24T00:17:35;9.20;99.90
6054;DHT22;3055;50.886;14.814;2023-04-24T00:20:03;9.20;99.90
6054;DHT22;3055;50.886;14.814;2023-04-24T00:22:32;9.10;99.90
6054;DHT22;3055;50.886;14.814;2023-04-24T00:24:59;9.10;99.90
6054;DHT22;3055;50.886;14.814;2023-04-24T00:27:26;9.20;99.90
6054;DHT22;3055;50.886;14.814;2023-04-24T00:29:55;9.10;99.90
6054;DHT22;3055;50.886;14.814;2023-04-24T00:32:22;9.20;99.90
6054;DHT22;3055;50.886;14.814;2023-04-24T00:34:49;9.30;99.90
6054;DHT22;3055;50.886;14.814;2023-04-24T00:37:16;9.30;99.90
6054;DHT22;3055;50.886;14.814;2023-04-24T00:39:43;9.30;99.90
6054;DHT22;3055;50.886;14.814;2023-04-24T00:42:10;9.40;99.90
6054;DHT22;3055;50.886;14.814;2023-04-24T00:44:37;9.40;99.90
6054;DHT22;3055;50.886;14.814;2023-04-24T00:47:07;9.50;99.90
6054;DHT22;3055;50.886;14.814;2023-04-24T00:49:34;9.50;99.90
6054;DHT22;3055;50.886;14.814;2023-04-24T00:52:01;9.50;99.90
6054;DHT22;3055;50.886;14.814;2023-04-24T00:54:33;9.50;99.90
6054;DHT22;3055;50.886;14.814;2023-04-24T00:57:00;9.40;99.90
6054;DHT22;3055;50.886;14.814;2023-04-24T00:59:27;9.40;99.90
6054;DHT22;3055;50.886;14.814;2023-04-24T01:01:55;9.30;99.90
6054;DHT22;3055;50.886;14.814;2023-04-24T01:04:24;9.20;99.90
6054;DHT22;3055;50.886;14.814;2023-04-24T01:06:53;9.20;99.90
6054;DHT22;3055;50.886;14.814;2023-04-24T01:09:22;9.20;99.90
6054;DHT22;3055;50.886;14.814;2023-04-24T01:11:50;9.10;99.90
6054;DHT22;3055;50.886;14.814;2023-04-24T01:14:17;9.10;99.90
6054;DHT22;3055;50.886;14.814;2023-04-24T01:16:44;9.10;99.90
6054;DHT22;3055;50.886;14.814;2023-04-24T01:19:11;9.00;99.90
6054;DHT22;3055;50.886;14.814;2023-04-24T01:21:40;8.90;99.90
6054;DHT22;3055;50.886;14.814;2023-04-24T01:24:10;9.00;99.90
6054;DHT22;3055;50.886;14.814;2023-04-24T01:26:37;9.00;99.90
6054;DHT22;3055;50.886;14.814;2023-04-24T01:29:04;9.00;99.90
6054;DHT22;3055;50.886;14.814;2023-04-24T01:31:32;9.20;99.90
6054;DHT22;3055;50.886;14.814;2023-04-24T01:33:59;9.30;99.90
6054;DHT22;3055;50.886;14.814;2023-04-24T01:36:27;9.50;99.90
6054;DHT22;3055;50.886;14.814;2023-04-24T01:38:55;9.60;99.90
6054;DHT22;3055;50.886;14.814;2023-04-24T01:41:23;9.80;99.90
6054;DHT22;3055;50.886;14.814;2023-04-24T01:43:51;9.90;99.90
6054;DHT22;3055;50.886;14.814;2023-04-24T01:46:18;10.20;99.90
6054;DHT22;3055;50.886;14.814;2023-04-24T01:48:46;10.50;99.90
6054;DHT22;3055;50.886;14.814;2023-04-24T01:51:13;10.80;99.90
6054;DHT22;3055;50.886;14.814;2023-04-24T01:53:40;11.00;99.90
6054;DHT22;3055;50.886;14.814;2023-04-24T01:56:07;11.10;99.90
6054;DHT22;3055;50.886;14.814;2023-04-24T01:58:36;11.20;99.90
6054;DHT22;3055;50.886;14.814;2023-04-24T02:01:03;11.20;99.90
6054;DHT22;3055;50.886;14.814;2023-04-24T02:03:30;11.20;99.90
6054;DHT22;3055;50.886;14.814;2023-04-24T02:05:57;11.20;99.90
6054;DHT22;3055;50.886;14.814;2023-04-24T02:08:24;11.10;99.90
6054;DHT22;3055;50.886;14.814;2023-04-24T02:10:51;11.00;99.90
6054;DHT22;3055;50.886;14.814;2023-04-24T02:13:18;10.90;99.90
6054;DHT22;3055;50.886;14.814;2023-04-24T02:15:46;10.80;99.90
6054;DHT22;3055;50.886;14.814;2023-04-24T02:18:13;10.70;99.90
6054;DHT22;3055;50.886;14.814;2023-04-24T02:20:41;10.80;99.90
6054;DHT22;3055;50.886;14.814;2023-04-24T02:23:08;10.60;99.90
6054;DHT22;3055;50.886;14.814;2023-04-24T02:25:35;10.60;99.90
6054;DHT22;3055;50.886;14.814;2023-04-24T02:28:02;10.50;99.90
6054;DHT22;3055;50.886;14.814;2023-04-24T02:30:29;10.40;99.90
6054;DHT22;3055;50.886;14.814;2023-04-24T02:32:57;10.50;99.90
6054;DHT22;3055;50.886;14.814;2023-04-24T02:35:24;10.50;99.90
6054;DHT22;3055;50.886;14.814;2023-04-24T02:37:51;10.90;99.90
6054;DHT22;3055;50.886;14.814;2023-04-24T02:40:18;11.10;99.90
6054;DHT22;3055;50.886;14.814;2023-04-24T02:42:45;11.20;99.90
6054;DHT22;3055;50.886;14.814;2023-04-24T02:45:12;11.40;99.90
6054;DHT22;3055;50.886;14.814;2023-04-24T02:47:39;11.50;99.90
6054;DHT22;3055;50.886;14.814;2023-04-24T02:50:08;11.40;99.90
6054;DHT22;3055;50.886;14.814;2023-04-24T02:52:35;11.30;99.90
6054;DHT22;3055;50.886;14.814;2023-04-24T02:55:02;11.30;99.90
6054;DHT22;3055;50.886;14.814;2023-04-24T02:57:29;11.40;99.90
6054;DHT22;3055;50.886;14.814;2023-04-24T02:59:56;11.40;99.90
6054;DHT22;3055;50.886;14.814;2023-04-24T03:02:23;11.60;99.90
6054;DHT22;3055;50.886;14.814;2023-04-24T03:04:51;11.60;99.90
6054;DHT22;3055;50.886;14.814;2023-04-24T03:07:19;11.70;99.90
6054;DHT22;3055;50.886;14.814;2023-04-24T03:09:47;11.70;99.90
6054;DHT22;3055;50.886;14.814;2023-04-24T03:12:14;11.70;99.90
6054;DHT22;3055;50.886;14.814;2023-04-24T03:14:42;11.70;99.90
6054;DHT22;3055;50.886;14.814;2023-04-24T03:17:09;11.80;99.90
6054;DHT22;3055;50.886;14.814;2023-04-24T03:19:36;11.90;99.90
6054;DHT22;3055;50.886;14.814;2023-04-24T03:22:03;11.80;99.90
6054;DHT22;3055;50.886;14.814;2023-04-24T03:24:32;11.80;99.90
6054;DHT22;3055;50.886;14.814;2023-04-24T03:26:58;11.70;99.90
6054;DHT22;3055;50.886;14.814;2023-04-24T03:29:26;11.70;99.90
6054;DHT22;3055;50.886;14.814;2023-04-24T03:31:53;11.70;99.90
6054;DHT22;3055;50.886;14.814;2023-04-24T03:34:20;11.70;99.90
6054;DHT22;3055;50.886;14.814;2023-04-24T03:36:46;11.80;99.90
6054;DHT22;3055;50.886;14.814;2023-04-24T03:39:14;11.90;99.90
6054;DHT22;3055;50.886;14.814;2023-04-24T03:41:42;11.90;99.90
6054;DHT22;3055;50.886;14.814;2023-04-24T03:44:09;11.90;99.90
6054;DHT22;3055;50.886;14.814;2023-04-24T03:46:36;11.90;99.90
6054;DHT22;3055;50.886;14.814;2023-04-24T03:49:03;11.90;99.90
6054;DHT22;3055;50.886;14.814;2023-04-24T03:51:30;11.90;99.90
6054;DHT22;3055;50.886;14.814;2023-04-24T03:53:57;11.80;99.90
6054;DHT22;3055;50.886;14.814;2023-04-24T03:56:24;11.80;99.90
6054;DHT22;3055;50.886;14.814;2023-04-24T03:58:53;11.80;99.90
6054;DHT22;3055;50.886;14.814;2023-04-24T04:01:20;11.80;99.90
6054;DHT22;3055;50.886;14.814;2023-04-24T04:03:47;11.80;99.90
6054;DHT22;3055;50.886;14.814;2023-04-24T04:06:14;11.80;99.90
6054;DHT22;3055;50.886;14.814;2023-04-24T04:08:41;11.90;99.90
6054;DHT22;3055;50.886;14.814;2023-04-24T04:11:08;11.90;99.90
6054;DHT22;3055;50.886;14.814;2023-04-24T04:13:35;11.90;99.90
6054;DHT22;3055;50.886;14.814;2023-04-24T04:16:03;11.90;99.90
6054;DHT22;3055;50.886;14.814;2023-04-24T04:18:31;12.00;99.90
6054;DHT22;3055;50.886;14.814;2023-04-24T04:20:57;12.00;99.90
6054;DHT22;3055;50.886;14.814;2023-04-24T04:23:26;12.00;99.90
6054;DHT22;3055;50.886;14.814;2023-04-24T04:25:54;12.00;99.90
6054;DHT22;3055;50.886;14.814;2023-04-24T04:28:21;12.00;99.90
6054;DHT22;3055;50.886;14.814;2023-04-24T04:30:50;12.10;99.90
6054;DHT22;3055;50.886;14.814;2023-04-24T04:33:20;12.00;99.90
6054;DHT22;3055;50.886;14.814;2023-04-24T04:35:47;12.00;99.90
6054;DHT22;3055;50.886;14.814;2023-04-24T04:38:15;12.00;99.90
6054;DHT22;3055;50.886;14.814;2023-04-24T04:40:42;12.00;99.90
6054;DHT22;3055;50.886;14.814;2023-04-24T04:43:09;12.10;99.90
6054;DHT22;3055;50.886;14.814;2023-04-24T04:45:36;12.00;99.90
6054;DHT22;3055;50.886;14.814;2023-04-24T04:48:05;12.00;99.90
6054;DHT22;3055;50.886;14.814;2023-04-24T04:50:35;12.00;99.90
6054;DHT22;3055;50.886;14.814;2023-04-24T04:53:02;12.00;99.90
6054;DHT22;3055;50.886;14.814;2023-04-24T04:55:30;12.00;99.90
6054;DHT22;3055;50.886;14.814;2023-04-24T04:57:57;12.00;99.90
6054;DHT22;3055;50.886;14.814;2023-04-24T05:00:26;12.00;99.90
6054;DHT22;3055;50.886;14.814;2023-04-24T05:02:54;12.10;99.90
6054;DHT22;3055;50.886;14.814;2023-04-24T05:05:21;12.10;99.90
6054;DHT22;3055;50.886;14.814;2023-04-24T05:07:49;12.10;99.90
6054;DHT22;3055;50.886;14.814;2023-04-24T05:10:16;12.20;99.90
6054;DHT22;3055;50.886;14.814;2023-04-24T05:12:43;12.40;99.90
6054;DHT22;3055;50.886;14.814;2023-04-24T05:15:11;12.40;99.90
6054;DHT22;3055;50.886;14.814;2023-04-24T05:17:38;12.50;99.90
6054;DHT22;3055;50.886;14.814;2023-04-24T05:20:07;12.60;99.90
6054;DHT22;3055;50.886;14.814;2023-04-24T05:22:35;12.60;99.90
6054;DHT22;3055;50.886;14.814;2023-04-24T05:25:04;12.60;99.90
6054;DHT22;3055;50.886;14.814;2023-04-24T05:27:31;12.60;99.90
6054;DHT22;3055;50.886;14.814;2023-04-24T05:29:58;12.70;99.90
6054;DHT22;3055;50.886;14.814;2023-04-24T05:32:25;12.80;99.90
6054;DHT22;3055;50.886;14.814;2023-04-24T05:34:52;12.90;99.90
6054;DHT22;3055;50.886;14.814;2023-04-24T05:37:19;13.00;99.90
6054;DHT22;3055;50.886;14.814;2023-04-24T05:39:46;13.20;99.90
6054;DHT22;3055;50.886;14.814;2023-04-24T05:42:15;13.40;98.20
6054;DHT22;3055;50.886;14.814;2023-04-24T05:44:41;13.50;59.80
6054;DHT22;3055;50.886;14.814;2023-04-24T05:47:09;13.60;62.60
6054;DHT22;3055;50.886;14.814;2023-04-24T05:49:36;13.60;43.40
6054;DHT22;3055;50.886;14.814;2023-04-24T05:52:03;13.70;38.70
6054;DHT22;3055;50.886;14.814;2023-04-24T05:54:32;13.70;40.40
6054;DHT22;3055;50.886;14.814;2023-04-24T05:56:59;13.70;36.40
6054;DHT22;3055;50.886;14.814;2023-04-24T05:59:31;13.80;41.40
6054;DHT22;3055;50.886;14.814;2023-04-24T06:01:58;13.80;28.20
6054;DHT22;3055;50.886;14.814;2023-04-24T06:04:25;13.80;26.20
6054;DHT22;3055;50.886;14.814;2023-04-24T06:06:52;13.80;35.20
6054;DHT22;3055;50.886;14.814;2023-04-24T06:09:21;13.70;44.50
6054;DHT22;3055;50.886;14.814;2023-04-24T06:11:49;13.70;48.00
6054;DHT22;3055;50.886;14.814;2023-04-24T06:14:18;13.70;59.50
6054;DHT22;3055;50.886;14.814;2023-04-24T06:16:46;13.80;86.90
6054;DHT22;3055;50.886;14.814;2023-04-24T06:19:13;13.80;84.40
6054;DHT22;3055;50.886;14.814;2023-04-24T06:21:40;13.80;90.60
6054;DHT22;3055;50.886;14.814;2023-04-24T06:24:07;13.80;55.90
6054;DHT22;3055;50.886;14.814;2023-04-24T06:26:35;13.70;59.70
6054;DHT22;3055;50.886;14.814;2023-04-24T06:29:02;13.80;58.00
6054;DHT22;3055;50.886;14.814;2023-04-24T06:31:29;13.90;65.60
6054;DHT22;3055;50.886;14.814;2023-04-24T06:34:02;14.00;55.80
6054;DHT22;3055;50.886;14.814;2023-04-24T06:36:29;14.00;36.80
6054;DHT22;3055;50.886;14.814;2023-04-24T06:38:56;14.00;39.60
6054;DHT22;3055;50.886;14.814;2023-04-24T06:41:24;13.90;34.50
6054;DHT22;3055;50.886;14.814;2023-04-24T06:43:51;13.90;37.50
6054;DHT22;3055;50.886;14.814;2023-04-24T06:46:18;13.90;48.50
6054;DHT22;3055;50.886;14.814;2023-04-24T06:48:47;13.90;51.20
6054;DHT22;3055;50.886;14.814;2023-04-24T06:51:16;13.90;59.70
6054;DHT22;3055;50.886;14.814;2023-04-24T06:53:44;13.90;29.80
6054;DHT22;3055;50.886;14.814;2023-04-24T06:56:11;13.90;30.90
6054;DHT22;3055;50.886;14.814;2023-04-24T06:58:38;13.90;41.50
6054;DHT22;3055;50.886;14.814;2023-04-24T07:01:05;13.80;40.10
6054;DHT22;3055;50.886;14.814;2023-04-24T07:03:32;13.80;33.90
6054;DHT22;3055;50.886;14.814;2023-04-24T07:05:59;13.70;36.20
6054;DHT22;3055;50.886;14.814;2023-04-24T07:08:27;13.70;24.00
6054;DHT22;3055;50.886;14.814;2023-04-24T07:10:56;13.60;43.80
6054;DHT22;3055;50.886;14.814;2023-04-24T07:13:23;13.60;40.80
6054;DHT22;3055;50.886;14.814;2023-04-24T07:15:50;13.60;65.20
6054;DHT22;3055;50.886;14.814;2023-04-24T07:18:19;13.60;52.50
6054;DHT22;3055;50.886;14.814;2023-04-24T07:20:46;13.50;54.10
6054;DHT22;3055;50.886;14.814;2023-04-24T07:23:15;13.50;64.70
6054;DHT22;3055;50.886;14.814;2023-04-24T07:25:44;13.40;57.90
6054;DHT22;3055;50.886;14.814;2023-04-24T07:28:11;13.30;76.80
6054;DHT22;3055;50.886;14.814;2023-04-24T07:30:38;13.30;88.50
6054;DHT22;3055;50.886;14.814;2023-04-24T07:33:05;13.20;92.90
6054;DHT22;3055;50.886;14.814;2023-04-24T07:35:33;13.10;99.80
6054;DHT22;3055;50.886;14.814;2023-04-24T07:38:00;13.10;99.90
6054;DHT22;3055;50.886;14.814;2023-04-24T07:40:27;13.10;99.90
6054;DHT22;3055;50.886;14.814;2023-04-24T07:42:55;13.00;98.80
6054;DHT22;3055;50.886;14.814;2023-04-24T07:45:22;12.90;99.90
6054;DHT22;3055;50.886;14.814;2023-04-24T07:47:51;12.90;99.90
6054;DHT22;3055;50.886;14.814;2023-04-24T07:50:19;12.80;99.90
6054;DHT22;3055;50.886;14.814;2023-04-24T07:52:46;12.80;99.90
6054;DHT22;3055;50.886;14.814;2023-04-24T07:55:13;12.80;99.90
6054;DHT22;3055;50.886;14.814;2023-04-24T07:57:40;12.90;99.90
6054;DHT22;3055;50.886;14.814;2023-04-24T08:00:10;12.90;99.90
6054;DHT22;3055;50.886;14.814;2023-04-24T08:02:37;12.90;99.90
6054;DHT22;3055;50.886;14.814;2023-04-24T08:05:05;12.90;99.90
6054;DHT22;3055;50.886;14.814;2023-04-24T08:07:32;13.00;99.90
6054;DHT22;3055;50.886;14.814;2023-04-24T08:09:59;13.20;99.90
6054;DHT22;3055;50.886;14.814;2023-04-24T08:12:27;13.40;99.90
6054;DHT22;3055;50.886;14.814;2023-04-24T08:14:55;13.60;99.90
6054;DHT22;3055;50.886;14.814;2023-04-24T08:17:24;13.90;99.90
6054;DHT22;3055;50.886;14.814;2023-04-24T08:19:51;14.30;73.10
6054;DHT22;3055;50.886;14.814;2023-04-24T08:22:24;14.50;46.60
6054;DHT22;3055;50.886;14.814;2023-04-24T08:24:52;14.60;25.50
6054;DHT22;3055;50.886;14.814;2023-04-24T08:27:19;14.60;1.00
6054;DHT22;3055;50.886;14.814;2023-04-24T08:29:46;14.80;1.00
6054;DHT22;3055;50.886;14.814;2023-04-24T08:32:13;14.90;1.00
6054;DHT22;3055;50.886;14.814;2023-04-24T08:34:41;15.20;1.00
6054;DHT22;3055;50.886;14.814;2023-04-24T08:37:08;15.40;1.00
6054;DHT22;3055;50.886;14.814;2023-04-24T08:39:36;15.50;99.90
6054;DHT22;3055;50.886;14.814;2023-04-24T08:42:05;15.40;1.00
6054;DHT22;3055;50.886;14.814;2023-04-24T08:44:34;15.40;1.00
6054;DHT22;3055;50.886;14.814;2023-04-24T08:47:03;15.40;1.00
6054;DHT22;3055;50.886;14.814;2023-04-24T08:49:30;15.30;1.00
6054;DHT22;3055;50.886;14.814;2023-04-24T08:51:59;15.40;1.00
6054;DHT22;3055;50.886;14.814;2023-04-24T08:54:26;15.40;1.00
6054;DHT22;3055;50.886;14.814;2023-04-24T08:56:54;15.30;1.00
6054;DHT22;3055;50.886;14.814;2023-04-24T08:59:22;15.10;1.00
6054;DHT22;3055;50.886;14.814;2023-04-24T09:01:50;15.10;86.40
6054;DHT22;3055;50.886;14.814;2023-04-24T09:04:18;15.10;99.10
6054;DHT22;3055;50.886;14.814;2023-04-24T09:06:48;14.90;76.20
6054;DHT22;3055;50.886;14.814;2023-04-24T09:09:17;14.80;99.90
6054;DHT22;3055;50.886;14.814;2023-04-24T09:11:44;14.80;99.90
6054;DHT22;3055;50.886;14.814;2023-04-24T09:14:12;14.80;1.00
6054;DHT22;3055;50.886;14.814;2023-04-24T09:16:40;14.90;1.00
6054;DHT22;3055;50.886;14.814;2023-04-24T09:19:07;15.20;1.00
6054;DHT22;3055;50.886;14.814;2023-04-24T09:21:34;15.40;99.90
6054;DHT22;3055;50.886;14.814;2023-04-24T09:24:03;15.30;99.90
6054;DHT22;3055;50.886;14.814;2023-04-24T09:26:34;15.30;99.90
6054;DHT22;3055;50.886;14.814;2023-04-24T09:29:03;15.50;99.90
6054;DHT22;3055;50.886;14.814;2023-04-24T09:31:30;15.70;99.90
6054;DHT22;3055;50.886;14.814;2023-04-24T09:33:58;15.80;1.00
6054;DHT22;3055;50.886;14.814;2023-04-24T09:36:30;15.80;1.00
6054;DHT22;3055;50.886;14.814;2023-04-24T09:38:59;15.80;1.00
6054;DHT22;3055;50.886;14.814;2023-04-24T09:41:27;15.90;1.00
6054;DHT22;3055;50.886;14.814;2023-04-24T09:43:56;16.10;1.00
6054;DHT22;3055;50.886;14.814;2023-04-24T09:46:30;16.20;1.00
6054;DHT22;3055;50.886;14.814;2023-04-24T09:49:08;16.10;1.00
6054;DHT22;3055;50.886;14.814;2023-04-24T09:51:37;16.00;1.00
6054;DHT22;3055;50.886;14.814;2023-04-24T09:54:04;16.00;1.00
6054;DHT22;3055;50.886;14.814;2023-04-24T09:56:42;16.20;1.00
6054;DHT22;3055;50.886;14.814;2023-04-24T09:59:12;16.30;1.00
6054;DHT22;3055;50.886;14.814;2023-04-24T10:01:39;16.40;1.00
6054;DHT22;3055;50.886;14.814;2023-04-24T10:04:21;16.70;1.00
6054;DHT22;3055;50.886;14.814;2023-04-24T10:06:49;16.80;1.00
6054;DHT22;3055;50.886;14.814;2023-04-24T10:09:18;16.90;1.00
6054;DHT22;3055;50.886;14.814;2023-04-24T10:11:46;17.00;1.00
6054;DHT22;3055;50.886;14.814;2023-04-24T10:14:16;17.10;99.90
6054;DHT22;3055;50.886;14.814;2023-04-24T10:16:44;17.20;99.90
6054;DHT22;3055;50.886;14.814;2023-04-24T10:19:13;17.10;99.90
6054;DHT22;3055;50.886;14.814;2023-04-24T10:21:42;16.80;99.90
6054;DHT22;3055;50.886;14.814;2023-04-24T10:24:12;16.80;99.90
6054;DHT22;3055;50.886;14.814;2023-04-24T10:26:40;16.70;99.90
6054;DHT22;3055;50.886;14.814;2023-04-24T10:29:08;16.70;99.90
6054;DHT22;3055;50.886;14.814;2023-04-24T10:31:39;16.60;99.90
6054;DHT22;3055;50.886;14.814;2023-04-24T10:34:09;16.50;99.90
6054;DHT22;3055;50.886;14.814;2023-04-24T10:36:39;16.40;99.90
6054;DHT22;3055;50.886;14.814;2023-04-24T10:39:09;16.20;99.90
6054;DHT22;3055;50.886;14.814;2023-04-24T10:41:38;16.10;99.90
6054;DHT22;3055;50.886;14.814;2023-04-24T10:44:06;15.90;99.90
6054;DHT22;3055;50.886;14.814;2023-04-24T10:46:33;15.90;99.90
6054;DHT22;3055;50.886;14.814;2023-04-24T10:49:03;15.90;99.90
6054;DHT22;3055;50.886;14.814;2023-04-24T10:51:47;16.00;99.90
6054;DHT22;3055;50.886;14.814;2023-04-24T10:54:28;15.90;99.90
6054;DHT22;3055;50.886;14.814;2023-04-24T10:57:25;16.00;99.90
6054;DHT22;3055;50.886;14.814;2023-04-24T11:00:13;15.90;99.90
6054;DHT22;3055;50.886;14.814;2023-04-24T11:02:41;15.70;99.90
6054;DHT22;3055;50.886;14.814;2023-04-24T11:05:16;15.70;99.90
6054;DHT22;3055;50.886;14.814;2023-04-24T11:08:12;15.80;99.90
6054;DHT22;3055;50.886;14.814;2023-04-24T11:10:40;15.70;99.90
6054;DHT22;3055;50.886;14.814;2023-04-24T11:13:10;15.70;99.90
6054;DHT22;3055;50.886;14.814;2023-04-24T11:15:37;15.80;99.90
6054;DHT22;3055;50.886;14.814;2023-04-24T11:18:04;15.70;99.90
6054;DHT22;3055;50.886;14.814;2023-04-24T11:20:32;15.60;99.90
6054;DHT22;3055;50.886;14.814;2023-04-24T11:23:03;15.60;99.90
6054;DHT22;3055;50.886;14.814;2023-04-24T11:25:32;15.60;99.90
6054;DHT22;3055;50.886;14.814;2023-04-24T11:28:14;15.60;99.90
6054;DHT22;3055;50.886;14.814;2023-04-24T11:30:42;15.70;99.90
6054;DHT22;3055;50.886;14.814;2023-04-24T11:33:09;15.70;99.90
6054;DHT22;3055;50.886;14.814;2023-04-24T11:35:40;15.80;99.90
6054;DHT22;3055;50.886;14.814;2023-04-24T11:38:10;15.90;99.90
6054;DHT22;3055;50.886;14.814;2023-04-24T11:40:37;15.90;99.90
6054;DHT22;3055;50.886;14.814;2023-04-24T11:43:04;16.00;99.90
6054;DHT22;3055;50.886;14.814;2023-04-24T11:45:32;16.10;99.90
6054;DHT22;3055;50.886;14.814;2023-04-24T11:47:59;16.20;99.90
6054;DHT22;3055;50.886;14.814;2023-04-24T11:50:27;16.20;99.90
6054;DHT22;3055;50.886;14.814;2023-04-24T11:52:56;16.40;99.90
6054;DHT22;3055;50.886;14.814;2023-04-24T11:55:25;16.60;99.90
6054;DHT22;3055;50.886;14.814;2023-04-24T11:57:54;16.60;99.90
6054;DHT22;3055;50.886;14.814;2023-04-24T12:00:24;16.60;99.90
6054;DHT22;3055;50.886;14.814;2023-04-24T12:02:51;16.60;99.90
6054;DHT22;3055;50.886;14.814;2023-04-24T12:05:23;16.60;99.90
6054;DHT22;3055;50.886;14.814;2023-04-24T12:07:50;16.60;99.90
6054;DHT22;3055;50.886;14.814;2023-04-24T12:10:22;16.50;99.90
6054;DHT22;3055;50.886;14.814;2023-04-24T12:12:50;16.60;99.90
6054;DHT22;3055;50.886;14.814;2023-04-24T12:15:17;16.70;99.90
6054;DHT22;3055;50.886;14.814;2023-04-24T12:17:45;16.80;99.90
6054;DHT22;3055;50.886;14.814;2023-04-24T12:20:14;16.90;99.90
6054;DHT22;3055;50.886;14.814;2023-04-24T12:22:45;17.00;99.90
6054;DHT22;3055;50.886;14.814;2023-04-24T12:25:12;17.20;99.90
6054;DHT22;3055;50.886;14.814;2023-04-24T12:27:41;17.30;99.90
6054;DHT22;3055;50.886;14.814;2023-04-24T12:30:11;17.60;99.90
6054;DHT22;3055;50.886;14.814;2023-04-24T12:32:42;17.70;99.90
6054;DHT22;3055;50.886;14.814;2023-04-24T12:35:09;17.80;99.90
6054;DHT22;3055;50.886;14.814;2023-04-24T12:37:36;17.80;99.90
6054;DHT22;3055;50.886;14.814;2023-04-24T12:40:07;17.70;99.90
6054;DHT22;3055;50.886;14.814;2023-04-24T12:42:35;17.70;99.90
6054;DHT22;3055;50.886;14.814;2023-04-24T12:45:05;17.90;99.90
6054;DHT22;3055;50.886;14.814;2023-04-24T12:47:33;18.40;90.20
6054;DHT22;3055;50.886;14.814;2023-04-24T12:50:01;18.80;74.40
6054;DHT22;3055;50.886;14.814;2023-04-24T12:52:29;19.20;45.40
6054;DHT22;3055;50.886;14.814;2023-04-24T12:54:58;19.40;18.30
6054;DHT22;3055;50.886;14.814;2023-04-24T12:57:26;19.50;11.10
6054;DHT22;3055;50.886;14.814;2023-04-24T12:59:54;19.60;1.00
6054;DHT22;3055;50.886;14.814;2023-04-24T13:02:23;19.80;1.00
6054;DHT22;3055;50.886;14.814;2023-04-24T13:04:51;20.10;1.00
6054;DHT22;3055;50.886;14.814;2023-04-24T13:07:18;20.40;1.00
6054;DHT22;3055;50.886;14.814;2023-04-24T13:09:45;20.50;1.00
6054;DHT22;3055;50.886;14.814;2023-04-24T13:12:13;20.70;1.00
6054;DHT22;3055;50.886;14.814;2023-04-24T13:14:41;21.00;1.00
6054;DHT22;3055;50.886;14.814;2023-04-24T13:17:08;21.20;1.00
6054;DHT22;3055;50.886;14.814;2023-04-24T13:19:40;21.60;1.00
6054;DHT22;3055;50.886;14.814;2023-04-24T13:22:08;21.90;1.00
6054;DHT22;3055;50.886;14.814;2023-04-24T13:24:35;22.00;1.00
6054;DHT22;3055;50.886;14.814;2023-04-24T13:27:03;22.30;1.00
6054;DHT22;3055;50.886;14.814;2023-04-24T13:29:30;22.20;1.00
6054;DHT22;3055;50.886;14.814;2023-04-24T13:31:57;21.90;1.00
6054;DHT22;3055;50.886;14.814;2023-04-24T13:34:25;21.10;1.00
6054;DHT22;3055;50.886;14.814;2023-04-24T13:36:55;20.30;1.00
6054;DHT22;3055;50.886;14.814;2023-04-24T13:39:23;19.80;1.00
6054;DHT22;3055;50.886;14.814;2023-04-24T13:41:50;19.50;1.00
6054;DHT22;3055;50.886;14.814;2023-04-24T13:44:18;19.10;1.00
6054;DHT22;3055;50.886;14.814;2023-04-24T13:46:47;18.80;1.00
6054;DHT22;3055;50.886;14.814;2023-04-24T13:49:15;18.80;1.00
6054;DHT22;3055;50.886;14.814;2023-04-24T13:51:42;19.20;1.00
6054;DHT22;3055;50.886;14.814;2023-04-24T13:54:11;19.60;1.00
6054;DHT22;3055;50.886;14.814;2023-04-24T13:56:39;19.80;1.00
6054;DHT22;3055;50.886;14.814;2023-04-24T13:59:06;20.10;1.00
6054;DHT22;3055;50.886;14.814;2023-04-24T14:01:34;20.20;1.00
6054;DHT22;3055;50.886;14.814;2023-04-24T14:04:01;20.20;1.00
6054;DHT22;3055;50.886;14.814;2023-04-24T14:06:28;20.00;1.00
6054;DHT22;3055;50.886;14.814;2023-04-24T14:08:55;19.30;1.00
6054;DHT22;3055;50.886;14.814;2023-04-24T14:11:23;18.60;1.00
6054;DHT22;3055;50.886;14.814;2023-04-24T14:13:50;18.10;1.00
6054;DHT22;3055;50.886;14.814;2023-04-24T14:16:17;17.70;1.00
6054;DHT22;3055;50.886;14.814;2023-04-24T14:18:44;17.10;1.00
6054;DHT22;3055;50.886;14.814;2023-04-24T14:21:11;16.60;1.00
6054;DHT22;3055;50.886;14.814;2023-04-24T14:23:38;16.00;1.00
6054;DHT22;3055;50.886;14.814;2023-04-24T14:26:05;15.60;1.00
6054;DHT22;3055;50.886;14.814;2023-04-24T14:28:34;15.30;1.00
6054;DHT22;3055;50.886;14.814;2023-04-24T14:31:01;14.90;1.00
6054;DHT22;3055;50.886;14.814;2023-04-24T14:33:28;14.60;1.00
6054;DHT22;3055;50.886;14.814;2023-04-24T14:35:55;14.20;55.80
6054;DHT22;3055;50.886;14.814;2023-04-24T14:38:22;13.90;99.90
6054;DHT22;3055;50.886;14.814;2023-04-24T14:40:49;13.60;1.00
6054;DHT22;3055;50.886;14.814;2023-04-24T14:43:16;13.30;99.90
6054;DHT22;3055;50.886;14.814;2023-04-24T14:45:44;13.20;99.90
6054;DHT22;3055;50.886;14.814;2023-04-24T14:48:11;13.00;13.10
6054;DHT22;3055;50.886;14.814;2023-04-24T14:50:38;13.00;22.60
6054;DHT22;3055;50.886;14.814;2023-04-24T14:53:05;12.90;1.00
6054;DHT22;3055;50.886;14.814;2023-04-24T14:55:32;12.80;49.90
6054;DHT22;3055;50.886;14.814;2023-04-24T14:58:01;12.90;1.00
6054;DHT22;3055;50.886;14.814;2023-04-24T15:00:29;12.90;1.00
6054;DHT22;3055;50.886;14.814;2023-04-24T15:02:57;13.00;1.00
6054;DHT22;3055;50.886;14.814;2023-04-24T15:05:24;13.00;1.00
6054;DHT22;3055;50.886;14.814;2023-04-24T15:07:51;13.10;1.00
6054;DHT22;3055;50.886;14.814;2023-04-24T15:10:19;13.20;1.00
6054;DHT22;3055;50.886;14.814;2023-04-24T15:12:48;13.30;1.00
6054;DHT22;3055;50.886;14.814;2023-04-24T15:15:15;13.30;1.00
6054;DHT22;3055;50.886;14.814;2023-04-24T15:17:42;13.20;99.90
6054;DHT22;3055;50.886;14.814;2023-04-24T15:20:11;13.20;99.90
6054;DHT22;3055;50.886;14.814;2023-04-24T15:22:37;13.20;1.00
6054;DHT22;3055;50.886;14.814;2023-04-24T15:25:05;13.20;1.00
6054;DHT22;3055;50.886;14.814;2023-04-24T15:27:40;13.20;99.50
6054;DHT22;3055;50.886;14.814;2023-04-24T15:30:08;13.20;45.00
6054;DHT22;3055;50.886;14.814;2023-04-24T15:32:36;13.20;99.90
6054;DHT22;3055;50.886;14.814;2023-04-24T15:35:03;13.10;87.00
6054;DHT22;3055;50.886;14.814;2023-04-24T15:37:32;13.10;1.00
6054;DHT22;3055;50.886;14.814;2023-04-24T15:39:59;13.00;99.90
6054;DHT22;3055;50.886;14.814;2023-04-24T15:42:26;13.00;99.90
6054;DHT22;3055;50.886;14.814;2023-04-24T15:44:53;13.10;99.90
6054;DHT22;3055;50.886;14.814;2023-04-24T15:47:20;13.30;1.00
6054;DHT22;3055;50.886;14.814;2023-04-24T15:49:47;13.80;99.90
6054;DHT22;3055;50.886;14.814;2023-04-24T15:52:14;14.30;99.90
6054;DHT22;3055;50.886;14.814;2023-04-24T15:54:42;14.70;1.00
6054;DHT22;3055;50.886;14.814;2023-04-24T15:57:09;15.60;1.00